Time;durP1;ratioP1;P1;durP2;ratioP2;P2;SDS_P1;SDS_P2;PMS_P1;PMS_P2;Temp;Humidity;BMP_temperature;BMP_pressure;BME280_temperature;BME280_humidity;BME280_pressure;Samples;Min_cycle;Max_cycle;Signal;HPM_P1;HPM_P2
2022/05/14 00:02:08;;;;;;;5.00;1.05;;;11.80;93.30;;;;;;6188206;28;20078;-86
2022/05/14 00:05:11;;;;;;;3.47;0.93;;;11.80;93.50;;;;;;6188335;28;20047;-87
2022/05/14 00:08:15;;;;;;;5.30;1.10;;;11.70;93.50;;;;;;6187115;28;20043;-87
2022/05/14 00:14:39;;;;;;;2.75;1.17;;;11.60;93.60;;;;;;6187540;28;20082;-86
2022/05/14 00:17:40;;;;;;;1.90;0.93;;;11.60;93.60;;;;;;6185501;28;20416;-84
2022/05/14 00:20:42;;;;;;;3.80;0.90;;;11.50;93.70;;;;;;6185227;28;20053;-87
2022/05/14 00:23:45;;;;;;;5.72;1.00;;;11.60;93.70;;;;;;6183459;28;20130;-87
2022/05/14 00:26:47;;;;;;;4.00;2.08;;;11.60;93.60;;;;;;6184638;28;20051;-84
2022/05/14 00:29:50;;;;;;;4.35;0.90;;;11.50;93.60;;;;;;6183883;28;20053;-87
2022/05/14 00:32:53;;;;;;;5.28;1.92;;;11.40;93.70;;;;;;6183750;28;20182;-85
2022/05/14 00:35:54;;;;;;;2.38;1.10;;;11.40;93.60;;;;;;6183849;28;20046;-87
2022/05/14 00:38:56;;;;;;;3.58;1.20;;;11.40;93.80;;;;;;6184458;28;20137;-85
2022/05/14 00:41:58;;;;;;;2.10;0.90;;;11.30;93.90;;;;;;6183762;28;20051;-86
2022/05/14 00:45:01;;;;;;;7.80;1.58;;;11.20;93.80;;;;;;6183040;28;20070;-85
2022/05/14 00:48:04;;;;;;;4.20;1.08;;;11.30;93.90;;;;;;6183501;28;20449;-84
2022/05/14 00:51:15;;;;;;;3.38;1.20;;;11.10;93.80;;;;;;6184107;28;20050;-80
2022/05/14 00:54:21;;;;;;;6.13;1.27;;;11.10;94.00;;;;;;6160210;28;20051;-85
2022/05/14 00:57:28;;;;;;;2.60;0.88;;;11.10;94.10;;;;;;6160756;28;20098;-84
2022/05/14 01:00:32;;;;;;;3.40;1.13;;;11.10;94.20;;;;;;6160674;28;20054;-83
2022/05/14 01:03:34;;;;;;;2.97;1.30;;;11.10;94.20;;;;;;6158441;28;20115;-85
2022/05/14 01:06:37;;;;;;;2.92;0.90;;;11.00;94.10;;;;;;6160473;29;20051;-84
2022/05/14 01:09:42;;;;;;;3.47;1.27;;;11.00;94.10;;;;;;6159444;28;20543;-85
2022/05/14 01:12:49;;;;;;;1.15;0.85;;;11.00;94.20;;;;;;6159510;28;20382;-83
2022/05/14 01:15:55;;;;;;;3.10;0.90;;;11.00;94.20;;;;;;6162357;28;20047;-83
2022/05/14 01:18:57;;;;;;;3.53;0.80;;;10.90;94.30;;;;;;6157270;29;20047;-83
2022/05/14 01:22:14;;;;;;;1.55;1.02;;;10.90;94.30;;;;;;6157223;28;20809;-86
2022/05/14 01:28:45;;;;;;;3.33;0.82;;;10.80;94.30;;;;;;6157900;28;20040;-84
2022/05/14 01:31:48;;;;;;;2.83;0.88;;;10.70;94.30;;;;;;6157600;28;20648;-84
2022/05/14 01:34:50;;;;;;;5.10;0.98;;;10.80;94.40;;;;;;6158395;28;20058;-85
2022/05/14 01:37:52;;;;;;;1.65;1.00;;;10.70;94.30;;;;;;6155853;28;20048;-83
2022/05/14 01:40:54;;;;;;;2.20;0.88;;;10.70;94.40;;;;;;6156294;28;20173;-84
2022/05/14 01:43:57;;;;;;;2.80;1.08;;;10.60;94.40;;;;;;6156036;28;20050;-84
2022/05/14 01:46:59;;;;;;;2.25;1.38;;;10.60;94.40;;;;;;6156052;29;20055;-85
2022/05/14 01:50:01;;;;;;;14.90;1.77;;;10.60;94.50;;;;;;6155001;28;20060;-85
2022/05/14 01:53:02;;;;;;;1.70;1.10;;;10.60;94.50;;;;;;6155976;28;20058;-86
2022/05/14 01:56:05;;;;;;;2.42;1.30;;;10.50;94.50;;;;;;6155493;28;20126;-86
2022/05/14 01:59:09;;;;;;;2.17;0.95;;;10.50;94.50;;;;;;6155149;29;20138;-83
2022/05/14 02:02:11;;;;;;;1.08;0.80;;;10.40;94.50;;;;;;6155106;28;20054;-85
2022/05/14 02:05:13;;;;;;;3.60;0.90;;;10.40;94.60;;;;;;6154711;28;20051;-84
2022/05/14 02:08:15;;;;;;;2.00;0.60;;;10.40;94.60;;;;;;6155013;28;20122;-84
2022/05/14 02:11:17;;;;;;;6.65;1.20;;;10.40;94.50;;;;;;6156211;28;20101;-85
2022/05/14 02:14:20;;;;;;;3.17;1.15;;;10.40;94.50;;;;;;6156933;28;20470;-85
2022/05/14 02:17:22;;;;;;;1.33;0.82;;;10.30;94.50;;;;;;6152094;28;20039;-84
2022/05/14 02:20:24;;;;;;;1.83;0.70;;;10.30;94.50;;;;;;6151909;28;20058;-84
2022/05/14 02:23:25;;;;;;;2.35;0.82;;;10.20;94.50;;;;;;6151828;28;20090;-84
2022/05/14 02:26:28;;;;;;;3.42;0.95;;;10.20;94.60;;;;;;6152930;29;20142;-85
2022/05/14 02:29:50;;;;;;;3.35;1.17;;;10.10;94.60;;;;;;6151689;28;20126;-86
2022/05/14 02:32:52;;;;;;;6.43;1.10;;;10.20;94.70;;;;;;6152216;28;20062;-85
2022/05/14 02:35:54;;;;;;;5.10;1.75;;;10.10;94.60;;;;;;6152676;28;20421;-84
2022/05/14 02:38:55;;;;;;;3.15;0.95;;;10.10;94.60;;;;;;6152314;29;20090;-85
2022/05/14 02:41:57;;;;;;;5.70;1.73;;;10.00;94.70;;;;;;6151993;28;21841;-85
2022/05/14 02:45:00;;;;;;;2.97;1.13;;;9.90;94.70;;;;;;6153105;28;20186;-85
2022/05/14 02:48:03;;;;;;;2.45;1.00;;;9.90;94.80;;;;;;6152450;28;20501;-84
2022/05/14 02:51:04;;;;;;;4.93;1.13;;;9.90;94.80;;;;;;6153659;28;20640;-85
2022/05/14 02:54:06;;;;;;;1.00;0.60;;;9.80;94.80;;;;;;6152795;28;20512;-85
2022/05/14 02:57:08;;;;;;;5.50;1.38;;;9.80;94.70;;;;;;6152890;28;20047;-85
2022/05/14 03:00:15;;;;;;;3.40;1.80;;;9.80;94.90;;;;;;6154061;28;20054;-85
2022/05/14 03:03:16;;;;;;;3.17;1.05;;;9.80;94.90;;;;;;6154163;28;20558;-85
2022/05/14 03:06:18;;;;;;;7.25;1.23;;;9.70;94.90;;;;;;6154279;29;20047;-83
2022/05/14 03:09:21;;;;;;;2.10;0.98;;;9.70;95.00;;;;;;6154603;28;20051;-83
2022/05/14 03:12:24;;;;;;;3.85;0.77;;;9.70;95.00;;;;;;6152250;28;20083;-85
2022/05/14 03:15:27;;;;;;;7.55;1.20;;;9.70;95.00;;;;;;6153450;28;20420;-84
2022/05/14 03:18:29;;;;;;;3.72;1.13;;;9.70;95.20;;;;;;6153693;28;20386;-84
2022/05/14 03:21:30;;;;;;;1.50;0.85;;;9.70;95.20;;;;;;6153239;28;20051;-84
2022/05/14 03:24:32;;;;;;;1.80;1.00;;;9.70;95.20;;;;;;6153117;28;20047;-85
2022/05/14 03:27:34;;;;;;;2.25;1.38;;;9.60;95.30;;;;;;6152931;28;20095;-85
2022/05/14 03:30:38;;;;;;;1.30;0.80;;;9.60;95.30;;;;;;6153780;29;20054;-85
2022/05/14 03:33:39;;;;;;;2.47;0.90;;;9.70;95.30;;;;;;6152131;28;20102;-85
2022/05/14 03:36:42;;;;;;;4.40;1.00;;;9.60;95.10;;;;;;6157980;28;20127;-85
2022/05/14 03:39:44;;;;;;;2.17;1.02;;;9.60;95.10;;;;;;6162350;28;20047;-85
2022/05/14 03:42:46;;;;;;;2.55;1.02;;;9.60;95.00;;;;;;6159376;29;20130;-87
2022/05/14 03:45:49;;;;;;;4.72;1.20;;;9.60;95.00;;;;;;6158308;28;20051;-85
2022/05/14 03:48:51;;;;;;;5.65;2.45;;;9.50;95.00;;;;;;6157106;28;20046;-87
2022/05/14 03:51:53;;;;;;;3.03;1.13;;;9.50;95.00;;;;;;6157073;28;20050;-87
2022/05/14 03:54:54;;;;;;;8.48;1.48;;;9.50;95.00;;;;;;6157068;29;20047;-87
2022/05/14 03:57:57;;;;;;;2.17;1.23;;;9.50;94.90;;;;;;6155790;28;20458;-87
2022/05/14 04:01:00;;;;;;;2.05;1.10;;;9.50;94.70;;;;;;6155493;28;20043;-87
2022/05/14 04:04:02;;;;;;;2.63;1.13;;;9.50;94.70;;;;;;6155619;28;20053;-83
2022/05/14 04:07:04;;;;;;;4.03;1.23;;;9.60;94.60;;;;;;6160269;28;20413;-87
2022/05/14 04:10:07;;;;;;;15.85;2.35;;;9.60;94.90;;;;;;6178130;28;20046;-87
2022/05/14 04:13:09;;;;;;;2.45;1.25;;;9.70;94.90;;;;;;6178771;28;20125;-87
2022/05/14 04:16:12;;;;;;;3.30;0.95;;;9.70;94.90;;;;;;6179861;28;20046;-88
2022/05/14 04:19:14;;;;;;;1.50;0.85;;;9.80;94.80;;;;;;6177732;28;20051;-87
2022/05/14 04:22:16;;;;;;;1.90;0.82;;;9.80;94.80;;;;;;6178281;28;20055;-87
2022/05/14 04:25:19;;;;;;;1.20;0.85;;;9.90;94.80;;;;;;6177009;28;20054;-86
2022/05/14 04:28:22;;;;;;;2.70;0.93;;;9.90;94.70;;;;;;6177634;28;20517;-85
2022/05/14 04:31:25;;;;;;;2.20;1.35;;;10.00;94.60;;;;;;6177903;28;20488;-87
2022/05/14 04:34:27;;;;;;;3.53;1.00;;;10.10;94.50;;;;;;6178062;28;20051;-87
2022/05/14 04:37:28;;;;;;;4.28;1.08;;;10.20;94.40;;;;;;6178287;28;20428;-86
2022/05/14 04:40:30;;;;;;;2.60;0.93;;;10.40;94.30;;;;;;6181779;28;20047;-85
2022/05/14 04:43:32;;;;;;;6.63;2.08;;;10.50;94.20;;;;;;6182307;28;20061;-83
2022/05/14 04:46:36;;;;;;;2.20;0.77;;;10.60;94.10;;;;;;6182726;28;20057;-84
2022/05/14 04:49:39;;;;;;;2.80;0.55;;;10.90;94.00;;;;;;6181419;28;20047;-85
2022/05/14 04:52:41;;;;;;;3.15;1.20;;;11.10;93.90;;;;;;6179898;28;20509;-87
2022/05/14 04:55:43;;;;;;;2.80;1.05;;;11.50;93.70;;;;;;6179869;28;20170;-86
2022/05/14 04:58:45;;;;;;;6.72;1.25;;;12.00;93.20;;;;;;6180161;28;20185;-84
2022/05/14 05:05:05;;;;;;;1.98;0.95;;;13.80;91.50;;;;;;6177399;28;20568;-86
2022/05/14 05:08:07;;;;;;;2.90;0.75;;;15.90;86.60;;;;;;6178169;28;20416;-84
2022/05/14 05:11:09;;;;;;;1.58;0.70;;;17.30;82.00;;;;;;6179029;28;20137;-85
2022/05/14 05:14:10;;;;;;;2.47;0.80;;;18.10;79.70;;;;;;6178400;28;20082;-86
2022/05/14 05:17:14;;;;;;;3.50;0.45;;;18.50;77.90;;;;;;6178629;28;20050;-85
2022/05/14 05:20:15;;;;;;;4.72;0.57;;;18.40;76.60;;;;;;6177791;28;20042;-85
2022/05/14 05:23:20;;;;;;;4.47;0.50;;;18.40;76.70;;;;;;6178331;28;20539;-84
2022/05/14 05:26:21;;;;;;;5.97;2.13;;;18.60;76.60;;;;;;6178531;28;20184;-84
2022/05/14 05:29:23;;;;;;;1.73;0.73;;;19.30;74.80;;;;;;6177319;28;20178;-85
2022/05/14 05:32:26;;;;;;;3.33;0.80;;;20.70;71.60;;;;;;6177346;28;20572;-86
2022/05/14 05:35:28;;;;;;;4.15;1.10;;;22.30;66.90;;;;;;6178435;28;20057;-86
2022/05/14 05:38:30;;;;;;;7.78;0.95;;;24.10;61.30;;;;;;6179081;28;20054;-85
2022/05/14 05:41:32;;;;;;;3.45;0.90;;;25.90;55.80;;;;;;6177743;28;20050;-86
2022/05/14 05:44:33;;;;;;;5.93;0.73;;;27.40;51.10;;;;;;6238300;22;20064;-82
2022/05/14 05:47:37;;;;;;;3.75;0.70;;;28.90;47.10;;;;;;6229244;28;20049;-82
2022/05/14 05:50:39;;;;;;;11.00;1.15;;;30.20;43.50;;;;;;6207294;28;20050;-82
2022/05/14 05:57:00;;;;;;;2.90;0.70;;;32.20;38.50;;;;;;6221536;28;20038;-82
2022/05/14 06:00:04;;;;;;;3.42;0.60;;;33.10;36.40;;;;;;6231210;28;20121;-82
2022/05/14 06:03:07;;;;;;;3.20;0.90;;;34.00;35.00;;;;;;6232393;28;20140;-83
2022/05/14 06:06:09;;;;;;;2.50;0.77;;;34.70;33.90;;;;;;6232918;28;20432;-83
2022/05/14 06:09:12;;;;;;;1.80;0.60;;;35.40;33.20;;;;;;6232486;28;20088;-83
2022/05/14 06:12:14;;;;;;;2.15;0.73;;;35.90;32.20;;;;;;6230174;28;20132;-83
2022/05/14 06:15:19;;;;;;;2.78;0.60;;;36.20;31.00;;;;;;6231971;28;20134;-83
2022/05/14 06:18:22;;;;;;;2.80;0.65;;;36.20;30.90;;;;;;6230737;28;20060;-83
2022/05/14 06:21:24;;;;;;;2.78;0.50;;;36.00;30.70;;;;;;6231432;28;20137;-82
2022/05/14 06:24:26;;;;;;;3.38;0.43;;;36.10;30.70;;;;;;6231860;28;20046;-83
2022/05/14 06:27:27;;;;;;;2.30;0.50;;;36.20;30.50;;;;;;6229442;28;20053;-82
2022/05/14 06:30:30;;;;;;;3.83;0.47;;;36.50;30.10;;;;;;6231341;28;20469;-83
2022/05/14 06:33:33;;;;;;;1.98;0.60;;;36.50;30.20;;;;;;6231261;28;20396;-82
2022/05/14 06:36:35;;;;;;;3.03;0.77;;;36.80;30.00;;;;;;6232180;28;20109;-81
2022/05/14 06:39:37;;;;;;;6.65;0.60;;;37.10;29.60;;;;;;6226740;28;21006;-83
2022/05/14 06:42:39;;;;;;;2.25;0.70;;;37.50;29.30;;;;;;6216181;28;20054;-83
2022/05/14 06:45:41;;;;;;;2.50;0.57;;;38.00;29.00;;;;;;6227540;28;20056;-83
2022/05/14 06:48:44;;;;;;;3.67;0.55;;;38.30;28.80;;;;;;6225690;28;20045;-83
2022/05/14 06:51:46;;;;;;;3.85;0.80;;;38.60;28.50;;;;;;6227995;28;20053;-84
2022/05/14 06:54:51;;;;;;;3.05;0.60;;;38.70;28.40;;;;;;6229018;28;20132;-83
2022/05/14 06:57:53;;;;;;;3.20;0.73;;;38.80;28.30;;;;;;6226735;28;20053;-83
2022/05/14 07:00:55;;;;;;;9.60;0.90;;;39.10;27.80;;;;;;6228236;28;20074;-82
2022/05/14 07:07:21;;;;;;;2.20;0.57;;;39.20;27.90;;;;;;6231305;28;20058;-83
2022/05/14 07:10:23;;;;;;;1.95;0.60;;;39.10;28.00;;;;;;6230625;28;20128;-83
2022/05/14 07:13:25;;;;;;;3.28;0.63;;;38.90;27.90;;;;;;6229604;28;20472;-83
2022/05/14 07:16:26;;;;;;;1.65;0.73;;;39.10;27.70;;;;;;6226417;28;20042;-84
2022/05/14 07:19:30;;;;;;;1.85;0.70;;;39.60;27.30;;;;;;6225920;28;20057;-83
2022/05/14 07:22:32;;;;;;;8.40;0.93;;;39.90;27.00;;;;;;6225264;28;20132;-83
2022/05/14 07:25:34;;;;;;;5.97;0.98;;;40.20;26.90;;;;;;6224522;28;20058;-84
2022/05/14 07:28:36;;;;;;;4.05;0.75;;;40.30;26.70;;;;;;6225221;28;20046;-81
2022/05/14 07:31:39;;;;;;;5.05;0.75;;;40.70;26.70;;;;;;6225648;28;20042;-81
2022/05/14 07:34:43;;;;;;;6.35;1.15;;;41.00;26.50;;;;;;6230088;28;20049;-83
2022/05/14 07:37:49;;;;;;;2.80;0.68;;;39.70;26.80;;;;;;6227099;28;20052;-83
2022/05/14 07:40:52;;;;;;;4.40;0.75;;;38.80;27.60;;;;;;6229098;28;20422;-83
2022/05/14 07:43:56;;;;;;;4.75;0.88;;;38.70;27.80;;;;;;6229600;28;20034;-83
2022/05/14 07:46:58;;;;;;;4.07;0.60;;;39.20;27.80;;;;;;6229845;28;20050;-83
2022/05/14 07:50:02;;;;;;;5.72;1.10;;;39.50;27.30;;;;;;6228428;28;20046;-83
2022/05/14 07:53:04;;;;;;;1.98;0.65;;;39.50;27.30;;;;;;6225816;28;20053;-83
2022/05/14 07:56:09;;;;;;;6.00;0.90;;;39.70;27.10;;;;;;6225633;28;20041;-84
2022/05/14 07:59:12;;;;;;;5.78;0.90;;;39.70;27.00;;;;;;6226167;28;20081;-83
2022/05/14 08:02:22;;;;;;;3.03;0.50;;;39.70;27.70;;;;;;6219725;28;20049;-82
2022/05/14 08:05:25;;;;;;;5.05;0.60;;;40.30;27.00;;;;;;6212130;28;20054;-82
2022/05/14 08:08:28;;;;;;;4.15;1.08;;;40.70;26.70;;;;;;6205439;28;20099;-83
2022/05/14 08:11:30;;;;;;;1.73;0.70;;;41.10;26.10;;;;;;6206581;28;20137;-81
2022/05/14 08:14:33;;;;;;;6.53;0.75;;;41.30;26.30;;;;;;6224676;28;20054;-82
2022/05/14 08:17:35;;;;;;;2.03;0.55;;;41.40;26.30;;;;;;6203025;28;20526;-82
2022/05/14 08:20:39;;;;;;;4.63;0.55;;;41.50;26.00;;;;;;6202108;28;20182;-82
2022/05/14 08:27:04;;;;;;;3.63;0.82;;;40.60;26.30;;;;;;6207596;28;20136;-81
2022/05/14 08:30:07;;;;;;;4.32;0.60;;;37.70;27.70;;;;;;6206554;28;20515;-81
2022/05/14 08:33:08;;;;;;;4.13;0.90;;;35.00;29.20;;;;;;6206338;28;20046;-81
2022/05/14 08:36:12;;;;;;;1.85;0.45;;;33.20;31.00;;;;;;6218753;28;20050;-82
2022/05/14 08:39:15;;;;;;;2.67;0.82;;;31.80;32.40;;;;;;6222731;28;20452;-80
2022/05/14 08:42:16;;;;;;;2.05;0.60;;;30.60;34.20;;;;;;6205149;28;20046;-80
2022/05/14 08:45:22;;;;;;;3.65;0.82;;;29.90;35.40;;;;;;6205090;28;20054;-81
2022/05/14 08:48:29;;;;;;;6.82;0.60;;;29.40;36.20;;;;;;6204973;28;20046;-81
2022/05/14 08:51:35;;;;;;;6.20;0.90;;;28.90;36.70;;;;;;6206085;28;20053;-82
2022/05/14 08:54:36;;;;;;;5.68;0.88;;;28.40;37.40;;;;;;6204919;28;20531;-81
2022/05/14 08:57:50;;;;;;;3.60;0.85;;;28.10;38.40;;;;;;6203549;28;20050;-81
2022/05/14 09:00:52;;;;;;;3.38;0.60;;;27.60;39.50;;;;;;6204414;28;20050;-80
2022/05/14 09:03:54;;;;;;;6.07;0.70;;;27.50;39.20;;;;;;6198929;28;20042;-81
2022/05/14 09:06:57;;;;;;;7.90;0.70;;;27.40;39.10;;;;;;6193355;28;20050;-80
2022/05/14 09:09:59;;;;;;;2.33;0.40;;;27.40;38.50;;;;;;6181833;28;20161;-80
2022/05/14 09:13:03;;;;;;;3.97;0.85;;;27.40;38.60;;;;;;6180767;28;20050;-80
2022/05/14 09:16:06;;;;;;;4.28;0.55;;;27.40;38.40;;;;;;6180750;28;20047;-80
2022/05/14 09:19:13;;;;;;;5.20;0.70;;;27.50;38.60;;;;;;6180189;28;20050;-80
2022/05/14 09:22:24;;;;;;;;;;;27.50;38.70;;;;;;6180247;28;20122;-80
2022/05/14 09:25:30;;;;;;;2.97;0.50;;;27.60;38.70;;;;;;6178573;28;20315;-79
2022/05/14 09:28:39;;;;;;;4.32;0.52;;;27.60;38.00;;;;;;6178144;28;20141;-79
2022/05/14 09:31:53;;;;;;;2.65;0.80;;;27.70;38.10;;;;;;6177732;28;20049;-80
2022/05/14 09:35:05;;;;;;;1.92;0.50;;;27.80;38.40;;;;;;6179490;28;20611;-79
2022/05/14 09:38:18;;;;;;;3.60;0.57;;;28.00;37.70;;;;;;6186235;28;20074;-80
2022/05/14 09:41:24;;;;;;;11.32;0.95;;;28.00;37.60;;;;;;6179072;28;20408;-80
2022/05/14 09:44:28;;;;;;;3.25;0.95;;;28.20;37.20;;;;;;6178712;28;20424;-80
2022/05/14 09:47:33;;;;;;;5.18;0.55;;;28.20;37.10;;;;;;6178302;28;20563;-80
2022/05/14 09:50:35;;;;;;;2.00;0.40;;;28.40;37.10;;;;;;6179184;28;20542;-80
2022/05/14 09:53:41;;;;;;;1.83;0.40;;;28.50;37.10;;;;;;6179783;28;20440;-80
2022/05/14 09:57:13;;;;;;;1.77;0.80;;;28.70;36.60;;;;;;6180554;28;20193;-80
2022/05/14 10:00:19;;;;;;;2.70;0.52;;;29.40;36.50;;;;;;6178201;28;20408;-81
2022/05/14 10:03:37;;;;;;;7.45;0.73;;;30.70;34.90;;;;;;6180525;28;20061;-80
2022/05/14 10:06:49;;;;;;;6.38;0.70;;;31.40;33.40;;;;;;6188590;28;20053;-81
2022/05/14 10:09:58;;;;;;;2.92;0.50;;;31.50;32.90;;;;;;6179584;28;20046;-80
2022/05/14 10:13:05;;;;;;;5.28;0.85;;;31.30;32.00;;;;;;6192994;28;20047;-81
2022/05/14 10:16:12;;;;;;;1.95;0.40;;;30.70;31.60;;;;;;6202038;28;20419;-81
2022/05/14 10:19:27;;;;;;;0.63;0.30;;;29.80;32.90;;;;;;6201027;28;20046;-80
2022/05/14 10:26:44;;;;;;;2.63;0.32;;;29.20;32.40;;;;;;6202040;28;20120;-81
2022/05/14 10:29:43;;;;;;;2.73;0.93;;;28.60;33.40;;;;;;6203703;28;20604;-79
2022/05/14 10:32:48;;;;;;;2.40;0.40;;;29.00;31.10;;;;;;6201841;28;20061;-81
2022/05/14 10:35:57;;;;;;;3.80;0.52;;;29.30;28.80;;;;;;6200786;28;20467;-79
2022/05/14 10:39:03;;;;;;;5.50;0.88;;;29.50;30.60;;;;;;6192664;28;20050;-80
2022/05/14 10:42:14;;;;;;;2.58;1.00;;;29.70;30.30;;;;;;6200378;28;20125;-81
2022/05/14 10:45:20;;;;;;;1.48;0.35;;;29.90;30.30;;;;;;6202304;28;20042;-81
2022/05/14 10:48:34;;;;;;;2.20;0.30;;;30.10;30.10;;;;;;6203323;28;20046;-81
2022/05/14 10:51:43;;;;;;;0.77;0.30;;;30.40;30.00;;;;;;6201915;28;20057;-80
2022/05/14 10:54:46;;;;;;;3.50;0.50;;;30.60;28.60;;;;;;6201177;28;20364;-80
2022/05/14 10:57:55;;;;;;;1.65;0.40;;;30.80;28.70;;;;;;6200226;28;20165;-82
2022/05/14 11:00:57;;;;;;;2.72;0.40;;;31.10;27.60;;;;;;6201351;28;20496;-80
2022/05/14 11:04:11;;;;;;;1.10;0.30;;;31.30;27.40;;;;;;6200485;28;20050;-81
2022/05/14 11:07:25;;;;;;;4.30;0.50;;;31.30;27.50;;;;;;6189141;28;20065;-80
2022/05/14 11:10:34;;;;;;;2.45;0.43;;;31.30;27.20;;;;;;6200225;28;20122;-79
2022/05/14 11:13:38;;;;;;;0.75;0.25;;;31.40;27.30;;;;;;6200426;28;20137;-80
2022/05/14 11:16:43;;;;;;;1.38;0.38;;;31.30;27.20;;;;;;6201114;28;20404;-80
2022/05/14 11:19:45;;;;;;;1.88;0.43;;;31.30;28.10;;;;;;6205432;28;20468;-83
2022/05/14 11:22:49;;;;;;;1.42;0.35;;;31.30;28.50;;;;;;6207853;28;20054;-81
2022/05/14 11:26:07;;;;;;;1.98;0.95;;;31.60;28.50;;;;;;6201986;28;20053;-81
2022/05/14 11:29:13;;;;;;;;;;;31.70;28.60;;;;;;6201175;28;20066;-81
2022/05/14 11:32:18;;;;;;;2.33;0.40;;;32.00;28.90;;;;;;6201173;28;19922;-83
2022/05/14 11:35:20;;;;;;;1.38;0.43;;;32.20;26.90;;;;;;6205819;28;20058;-82
2022/05/14 11:38:33;;;;;;;3.45;0.80;;;32.30;27.20;;;;;;6220524;28;20053;-83
2022/05/14 11:41:37;;;;;;;2.38;0.63;;;32.40;27.30;;;;;;6224466;28;20042;-82
2022/05/14 11:44:45;;;;;;;4.90;0.60;;;32.70;27.10;;;;;;6224864;28;20042;-82
2022/05/14 11:48:03;;;;;;;6.53;1.05;;;33.00;28.30;;;;;;6224524;28;20392;-83
2022/05/14 11:51:11;;;;;;;2.03;0.50;;;33.30;27.10;;;;;;6232685;28;20133;-83
2022/05/14 11:54:17;;;;;;;4.45;0.55;;;33.80;27.20;;;;;;6231756;28;20049;-83
2022/05/14 11:57:23;;;;;;;0.70;0.10;;;34.10;26.70;;;;;;6231319;28;20050;-83
2022/05/14 12:00:31;;;;;;;1.55;0.30;;;34.30;26.00;;;;;;6230296;28;20046;-83
2022/05/14 12:03:36;;;;;;;0.88;0.30;;;34.30;26.10;;;;;;6227602;28;20050;-83
2022/05/14 12:07:02;;;;;;;1.80;0.55;;;34.50;26.00;;;;;;6224539;28;20432;-83
2022/05/14 12:10:14;;;;;;;3.20;0.68;;;34.60;26.10;;;;;;6214564;28;20627;-83
2022/05/14 12:13:24;;;;;;;1.38;0.38;;;34.50;26.40;;;;;;6205968;28;20605;-83
2022/05/14 12:16:32;;;;;;;0.35;0.10;;;34.50;26.50;;;;;;6229162;28;20050;-83
2022/05/14 12:19:39;;;;;;;1.08;0.30;;;34.70;26.30;;;;;;6230312;28;20049;-83
2022/05/14 12:22:52;;;;;;;3.88;0.47;;;34.70;25.00;;;;;;6231975;28;20614;-83
2022/05/14 12:25:54;;;;;;;0.93;0.30;;;34.70;25.20;;;;;;6231367;28;20052;-83
2022/05/14 12:28:58;;;;;;;1.60;0.25;;;34.70;24.90;;;;;;6229860;28;20041;-83
2022/05/14 12:35:25;;;;;;;3.08;0.75;;;34.90;25.50;;;;;;6229729;28;20053;-84
2022/05/14 12:38:30;;;;;;;3.40;0.32;;;35.00;25.60;;;;;;6222670;28;20056;-83
2022/05/14 12:41:40;;;;;;;1.27;0.30;;;35.10;25.40;;;;;;6228341;28;20411;-83
2022/05/14 12:44:45;;;;;;;1.08;0.17;;;35.10;25.20;;;;;;6228508;28;20042;-83
2022/05/14 12:47:48;;;;;;;1.50;0.30;;;35.10;25.40;;;;;;6228187;28;20052;-83
2022/05/14 12:50:53;;;;;;;1.98;0.30;;;35.00;25.10;;;;;;6229696;28;20050;-83
2022/05/14 12:53:54;;;;;;;4.43;0.65;;;35.00;25.80;;;;;;6230598;28;20057;-83
2022/05/14 12:57:01;;;;;;;3.70;0.55;;;35.10;25.90;;;;;;6229233;28;20131;-84
2022/05/14 13:00:04;;;;;;;0.40;0.20;;;35.20;25.60;;;;;;6228589;28;20048;-84
2022/05/14 13:03:13;;;;;;;2.38;0.30;;;35.10;25.00;;;;;;6228556;28;20042;-83
2022/05/14 13:06:20;;;;;;;2.00;0.17;;;34.80;25.10;;;;;;6226300;28;20050;-83
2022/05/14 13:09:25;;;;;;;2.95;0.28;;;34.90;25.40;;;;;;6209996;28;20054;-83
2022/05/14 13:12:30;;;;;;;4.30;0.63;;;35.00;25.20;;;;;;6227163;28;20049;-83
2022/05/14 13:15:34;;;;;;;3.88;0.43;;;35.10;25.20;;;;;;6226324;28;20056;-84
2022/05/14 13:18:43;;;;;;;3.08;0.88;;;35.30;25.20;;;;;;6227917;28;20056;-83
2022/05/14 13:21:48;;;;;;;1.42;0.50;;;35.40;25.50;;;;;;6227587;28;20088;-83
2022/05/14 13:24:52;;;;;;;0.35;0.20;;;35.40;25.60;;;;;;6230607;28;20042;-84
2022/05/14 13:27:54;;;;;;;2.38;0.30;;;35.60;25.70;;;;;;6228198;28;20048;-84
2022/05/14 13:30:56;;;;;;;2.13;0.30;;;35.70;24.90;;;;;;6229323;28;20046;-84
2022/05/14 13:37:07;;;;;;;1.38;0.38;;;35.70;24.40;;;;;;6227230;28;20079;-84
2022/05/14 13:37:26;;;;;;;1.80;0.22;;;35.80;24.60;;;;;;6216502;28;20042;-83
2022/05/14 13:40:30;;;;;;;3.90;0.50;;;35.80;24.40;;;;;;6202081;28;20038;-83
2022/05/14 13:43:34;;;;;;;3.78;0.63;;;35.80;24.10;;;;;;6203536;28;20516;-83
2022/05/14 13:46:43;;;;;;;3.13;0.35;;;35.80;24.50;;;;;;6202148;28;20443;-84
2022/05/14 13:49:53;;;;;;;1.85;0.38;;;35.80;25.10;;;;;;6201290;28;20057;-84
2022/05/14 13:52:56;;;;;;;1.13;0.52;;;35.80;25.40;;;;;;6200290;28;20508;-84
2022/05/14 13:56:03;;;;;;;1.25;0.30;;;35.70;25.40;;;;;;6201889;28;20123;-83
2022/05/14 13:59:08;;;;;;;6.07;0.40;;;35.60;25.70;;;;;;6202161;28;20094;-84
2022/05/14 14:02:18;;;;;;;1.30;0.17;;;35.70;25.30;;;;;;6202775;28;20070;-84
2022/05/14 14:05:21;;;;;;;5.35;0.60;;;35.70;24.90;;;;;;6202599;28;20068;-83
2022/05/14 14:08:29;;;;;;;3.10;0.45;;;35.60;25.30;;;;;;6213728;28;20055;-84
2022/05/14 14:11:31;;;;;;;4.68;0.85;;;35.60;25.40;;;;;;6199301;28;20053;-83
2022/05/14 14:14:33;;;;;;;8.15;1.13;;;35.70;25.30;;;;;;6200795;28;20054;-83
2022/05/14 14:17:35;;;;;;;3.28;0.57;;;35.80;25.60;;;;;;6200128;28;20056;-84
2022/05/14 14:20:43;;;;;;;3.00;0.47;;;35.70;26.20;;;;;;6199607;28;20104;-84
2022/05/14 14:23:49;;;;;;;1.25;0.28;;;35.70;27.00;;;;;;6199604;28;20046;-84
2022/05/14 14:26:53;;;;;;;4.18;1.00;;;35.70;26.60;;;;;;6199950;28;20120;-84
2022/05/14 14:29:57;;;;;;;1.40;0.55;;;35.60;26.70;;;;;;6199608;28;20046;-84
2022/05/14 14:32:59;;;;;;;1.75;0.40;;;35.50;26.70;;;;;;6199300;28;20520;-84
2022/05/14 14:36:04;;;;;;;4.93;0.52;;;35.40;25.90;;;;;;6203984;28;20089;-84
2022/05/14 14:39:07;;;;;;;3.42;0.30;;;35.40;26.00;;;;;;6210343;28;20054;-84
2022/05/14 14:42:10;;;;;;;2.65;0.90;;;35.50;26.00;;;;;;6201459;28;20053;-84
2022/05/14 14:45:13;;;;;;;4.03;0.73;;;35.50;25.70;;;;;;6201958;28;20046;-84
2022/05/14 14:48:15;;;;;;;5.97;0.85;;;35.50;25.00;;;;;;6204623;28;20144;-85
2022/05/14 14:51:18;;;;;;;4.13;0.45;;;35.60;24.90;;;;;;6203942;28;20472;-84
2022/05/14 14:54:20;;;;;;;2.17;0.50;;;35.50;24.50;;;;;;6205249;28;20055;-85
2022/05/14 14:57:22;;;;;;;2.05;0.40;;;35.40;24.70;;;;;;6204269;28;20137;-85
2022/05/14 15:00:25;;;;;;;1.70;0.47;;;35.40;24.10;;;;;;6201567;28;20052;-84
2022/05/14 15:03:30;;;;;;;3.58;0.70;;;35.50;24.70;;;;;;6203023;28;20054;-84
2022/05/14 15:06:35;;;;;;;1.83;0.65;;;35.10;25.10;;;;;;6214367;28;20129;-84
2022/05/14 15:09:38;;;;;;;2.28;0.40;;;34.70;25.60;;;;;;6219529;28;20127;-85
2022/05/14 15:12:42;;;;;;;2.95;0.30;;;34.70;25.20;;;;;;6224752;28;20181;-84
2022/05/14 15:15:44;;;;;;;2.35;0.30;;;34.60;25.10;;;;;;6224501;28;20049;-83
2022/05/14 15:18:46;;;;;;;3.00;0.75;;;34.50;25.10;;;;;;6226299;28;20046;-84
2022/05/14 15:21:49;;;;;;;5.78;0.65;;;34.10;25.70;;;;;;6226808;28;20052;-83
2022/05/14 15:24:52;;;;;;;3.22;0.70;;;33.80;25.80;;;;;;6225758;28;20081;-84
2022/05/14 15:27:53;;;;;;;3.25;0.50;;;33.60;25.50;;;;;;6226454;28;20061;-82
2022/05/14 15:30:56;;;;;;;1.33;0.43;;;33.50;25.70;;;;;;6225958;28;20129;-84
2022/05/14 15:33:57;;;;;;;5.63;0.32;;;33.40;25.90;;;;;;6226874;28;20049;-84
2022/05/14 15:37:01;;;;;;;1.40;0.40;;;33.30;26.40;;;;;;6219101;28;20054;-84
2022/05/14 15:40:03;;;;;;;3.58;0.57;;;33.20;26.40;;;;;;6225611;28;20052;-84
2022/05/14 15:43:05;;;;;;;6.40;0.60;;;33.10;27.60;;;;;;6225807;28;20042;-83
2022/05/14 15:46:10;;;;;;;2.83;0.60;;;32.90;27.50;;;;;;6223978;28;20054;-83
2022/05/14 15:49:18;;;;;;;4.35;0.65;;;32.80;27.60;;;;;;6231111;28;20128;-82
2022/05/14 15:52:25;;;;;;;3.17;0.60;;;32.60;27.20;;;;;;6226660;28;20101;-82
2022/05/14 15:55:29;;;;;;;1.17;0.50;;;32.50;27.30;;;;;;6226037;28;20077;-82
2022/05/14 15:58:31;;;;;;;1.83;0.30;;;32.30;27.30;;;;;;6229593;28;20057;-83
2022/05/14 16:01:33;;;;;;;1.73;0.40;;;31.90;27.20;;;;;;6226022;28;20420;-83
2022/05/14 16:04:35;;;;;;;3.25;0.60;;;31.60;27.80;;;;;;6225287;28;20080;-81
2022/05/14 16:07:39;;;;;;;1.95;0.73;;;31.40;27.70;;;;;;6218973;28;20161;-81
2022/05/14 16:17:20;;;;;;;1.92;0.45;;;31.30;28.30;;;;;;6227770;28;20105;-83
2022/05/14 16:20:22;;;;;;;1.25;0.47;;;31.30;28.20;;;;;;6227498;28;20478;-83
2022/05/14 16:23:26;;;;;;;2.92;0.60;;;31.30;28.20;;;;;;6232463;28;20053;-82
2022/05/14 16:26:30;;;;;;;5.93;0.77;;;31.00;28.10;;;;;;6229004;28;20054;-80
2022/05/14 16:30:09;;;;;;;4.70;0.50;;;30.90;28.90;;;;;;6229530;28;20046;-82
2022/05/14 16:32:54;;;;;;;3.00;0.70;;;30.90;29.00;;;;;;6229893;28;20038;-81
2022/05/14 16:35:56;;;;;;;5.07;0.70;;;30.80;30.00;;;;;;6228745;28;20182;-83